createdAt,value
2022-09-23T00:00:49.478Z,92254.28
2022-09-23T00:03:16.832Z,92259.16
2022-09-23T00:05:44.177Z,92256.03
2022-09-23T00:08:11.545Z,92255.25
2022-09-23T00:10:38.917Z,92259.34
2022-09-23T00:13:06.299Z,92258.19
2022-09-23T00:15:52.421Z,92252.09
2022-09-23T00:18:20.049Z,92245.97
2022-09-23T00:20:47.388Z,92251.97
2022-09-23T00:23:14.759Z,92246.69
2022-09-23T00:25:42.113Z,92247.41
2022-09-23T00:28:09.456Z,92249.63
2022-09-23T00:30:36.924Z,92248.56
2022-09-23T00:33:04.307Z,92252.34
2022-09-23T00:35:31.679Z,92233.78
2022-09-23T00:37:59.025Z,92241.00
2022-09-23T00:40:38.572Z,92248.50
2022-09-23T00:43:05.959Z,92239.03
2022-09-23T00:45:33.296Z,92240.53
2022-09-23T00:48:00.666Z,92243.78
2022-09-23T00:50:28.033Z,92250.25
2022-09-23T00:52:55.397Z,92244.16
2022-09-23T00:55:22.755Z,92241.50
2022-09-23T00:57:50.145Z,92239.25
2022-09-23T01:00:17.513Z,92235.38
2022-09-23T01:02:44.932Z,92232.69
2022-09-23T01:05:12.454Z,92237.66
2022-09-23T01:07:39.823Z,92229.44
2022-09-23T01:10:07.189Z,92233.78
2022-09-23T01:12:34.574Z,92227.34
2022-09-23T01:15:01.919Z,92230.00
2022-09-23T01:17:29.277Z,92227.44
2022-09-23T01:19:56.664Z,92230.44
2022-09-23T01:22:24.032Z,92234.94
2022-09-23T01:24:51.384Z,92224.25
2022-09-23T01:27:18.782Z,92220.13
2022-09-23T01:29:48.063Z,92224.91
2022-09-23T01:32:15.425Z,92218.50
2022-09-23T01:34:42.817Z,92218.81
2022-09-23T01:37:10.167Z,92226.28
2022-09-23T01:39:37.538Z,92228.63
2022-09-23T01:42:05.015Z,92225.56
2022-09-23T01:44:34.296Z,92227.53
2022-09-23T01:47:01.670Z,92218.03
2022-09-23T01:49:29.044Z,92223.00
2022-09-23T01:51:56.401Z,92227.53
2022-09-23T01:54:25.780Z,92223.91
2022-09-23T01:56:53.141Z,92220.56
2022-09-23T01:59:20.507Z,92221.25
2022-09-23T02:01:47.959Z,92221.25
2022-09-23T02:04:15.389Z,92227.25
2022-09-23T02:06:42.849Z,92225.44
2022-09-23T02:09:10.418Z,92216.72
2022-09-23T02:11:37.786Z,92219.31
2022-09-23T02:14:05.151Z,92223.50
2022-09-23T02:16:32.606Z,92217.38
2022-09-23T02:19:00.094Z,92215.09
2022-09-23T02:21:27.535Z,92221.31
2022-09-23T02:23:54.897Z,92217.88
2022-09-23T02:26:22.234Z,92224.66
2022-09-23T02:28:49.606Z,92222.38
2022-09-23T02:31:18.869Z,92229.66
2022-09-23T02:33:46.216Z,92219.72
2022-09-23T02:36:13.580Z,92225.47
2022-09-23T02:38:40.920Z,92220.56
2022-09-23T02:41:08.259Z,92216.75
2022-09-23T02:43:35.670Z,92216.75
2022-09-23T02:46:03.083Z,92217.56
2022-09-23T02:48:30.480Z,92219.81
2022-09-23T02:50:57.824Z,92225.09
2022-09-23T02:53:25.180Z,92223.06
2022-09-23T02:55:52.528Z,92219.28
2022-09-23T02:58:20.094Z,92222.66
2022-09-23T03:00:47.540Z,92223.38
2022-09-23T03:03:16.857Z,92226.06
2022-09-23T03:05:44.216Z,92224.91
2022-09-23T03:08:11.559Z,92232.09
2022-09-23T03:10:39.029Z,92233.31
2022-09-23T03:13:06.370Z,92225.81
2022-09-23T03:15:33.715Z,92220.88
2022-09-23T03:18:01.078Z,92220.16
2022-09-23T03:20:28.456Z,92224.72
2022-09-23T03:22:55.803Z,92215.91
2022-09-23T03:25:23.158Z,92219.28
2022-09-23T03:27:50.527Z,92220.06
2022-09-23T03:30:17.882Z,92220.53
2022-09-23T03:32:45.252Z,92222.88
2022-09-23T03:35:12.610Z,92231.19
2022-09-23T03:37:39.969Z,92225.13
2022-09-23T03:40:07.363Z,92222.44
2022-09-23T03:42:34.739Z,92228.91
2022-09-23T03:45:02.084Z,92222.09
2022-09-23T03:47:29.433Z,92226.91
2022-09-23T03:49:56.857Z,92222.09
2022-09-23T03:52:24.243Z,92220.84
2022-09-23T03:54:51.605Z,92219.97
2022-09-23T03:57:18.965Z,92212.41
2022-09-23T03:59:46.320Z,92219.84
2022-09-23T04:02:13.880Z,92219.75
2022-09-23T04:04:41.296Z,92206.84
2022-09-23T04:07:08.665Z,92211.91
2022-09-23T04:09:37.944Z,92210.22
2022-09-23T04:12:05.299Z,92201.97
2022-09-23T04:14:32.684Z,92206.50
2022-09-23T04:17:00.040Z,92205.00
2022-09-23T04:19:27.380Z,92204.97
2022-09-23T04:21:54.740Z,92207.97
2022-09-23T04:24:22.090Z,92204.66
2022-09-23T04:26:49.431Z,92200.91
2022-09-23T04:29:16.900Z,92200.13
2022-09-23T04:31:44.263Z,92196.75
2022-09-23T04:34:23.731Z,92193.75
2022-09-23T04:36:52.979Z,92192.97
2022-09-23T04:39:20.330Z,92199.44
2022-09-23T04:41:47.784Z,92198.66
2022-09-23T04:44:15.145Z,92208.50
2022-09-23T04:46:42.591Z,92208.50
2022-09-23T04:49:12.935Z,92212.25
2022-09-23T04:51:40.287Z,92219.84
2022-09-23T04:54:07.629Z,92223.56
2022-09-23T04:56:34.997Z,92227.00
2022-09-23T04:59:02.468Z,92227.34
2022-09-23T05:01:29.926Z,92232.31
2022-09-23T05:03:57.301Z,92234.88
2022-09-23T05:06:24.640Z,92235.59
2022-09-23T05:08:51.893Z,92237.19
2022-09-23T05:11:19.239Z,92235.59
2022-09-23T05:13:46.591Z,92230.66
2022-09-23T05:16:13.995Z,92221.50
2022-09-23T05:18:41.525Z,92228.34
2022-09-23T05:21:08.885Z,92220.81
2022-09-23T05:23:36.240Z,92224.63
2022-09-23T05:26:03.618Z,92228.41
2022-09-23T05:28:30.960Z,92232.94
2022-09-23T05:30:58.357Z,92226.56
2022-09-23T05:33:25.757Z,92228.47
2022-09-23T05:35:53.113Z,92228.88
2022-09-23T05:38:20.462Z,92235.28
2022-09-23T05:40:49.803Z,92234.22
2022-09-23T05:43:17.212Z,92241.38
2022-09-23T05:45:44.562Z,92237.97
2022-09-23T05:48:11.924Z,92233.88
2022-09-23T05:50:39.288Z,92231.94
2022-09-23T05:53:06.633Z,92240.25
2022-09-23T05:55:33.999Z,92238.38
2022-09-23T05:58:01.394Z,92242.91
2022-09-23T06:00:28.770Z,92241.38
2022-09-23T06:02:56.256Z,92246.25
2022-09-23T06:05:23.687Z,92243.66
2022-09-23T06:07:51.034Z,92244.38
2022-09-23T06:10:18.390Z,92244.41
2022-09-23T06:12:45.769Z,92245.53
2022-09-23T06:15:13.132Z,92240.94
2022-09-23T06:17:40.521Z,92244.41
2022-09-23T06:20:07.877Z,92236.84
2022-09-23T06:22:38.951Z,92236.47
2022-09-23T06:25:07.367Z,92239.13
2022-09-23T06:27:36.299Z,92237.94
2022-09-23T06:30:03.901Z,92232.22
2022-09-23T06:32:31.404Z,92233.31
2022-09-23T06:34:58.774Z,92237.91
2022-09-23T06:37:26.130Z,92237.78
2022-09-23T06:39:53.496Z,92229.81
2022-09-23T06:42:20.846Z,92226.13
2022-09-23T06:44:48.191Z,92234.78
2022-09-23T06:47:15.561Z,92236.25
2022-09-23T06:49:42.903Z,92235.78
2022-09-23T06:52:10.254Z,92235.44
2022-09-23T06:54:37.624Z,92230.16
2022-09-23T06:57:04.977Z,92230.16
2022-09-23T06:59:32.334Z,92237.16
2022-09-23T07:01:59.886Z,92234.91
2022-09-23T07:04:29.364Z,92242.16
2022-09-23T07:06:56.893Z,92235.28
2022-09-23T07:09:24.266Z,92232.97
2022-09-23T07:11:51.626Z,92237.25
2022-09-23T07:14:18.979Z,92242.84
2022-09-23T07:16:46.343Z,92248.94
2022-09-23T07:19:13.722Z,92242.16
2022-09-23T07:21:41.073Z,92242.53
2022-09-23T07:24:09.632Z,92244.06
2022-09-23T07:26:49.215Z,92243.28
2022-09-23T07:29:16.574Z,92252.38
2022-09-23T07:31:43.979Z,92252.75
2022-09-23T07:34:11.407Z,92247.06
2022-09-23T07:36:38.824Z,92254.56
2022-09-23T07:39:06.211Z,92259.56
2022-09-23T07:41:33.561Z,92252.34
2022-09-23T07:44:01.034Z,92259.94
2022-09-23T07:46:28.439Z,92256.88
2022-09-23T07:48:55.815Z,92257.25
2022-09-23T07:51:23.173Z,92249.28
2022-09-23T07:53:50.553Z,92257.25
2022-09-23T07:56:17.918Z,92252.25
2022-09-23T07:58:45.389Z,92252.56
2022-09-23T08:01:12.802Z,92254.81
2022-09-23T08:03:40.183Z,92255.25
2022-09-23T08:06:07.547Z,92254.06
2022-09-23T08:08:34.768Z,92273.09
2022-09-23T08:11:02.233Z,92258.56
2022-09-23T08:13:29.606Z,92256.31
2022-09-23T08:15:57.031Z,92257.22
2022-09-23T08:18:24.393Z,92265.94
2022-09-23T08:20:51.770Z,92265.59
2022-09-23T08:23:19.115Z,92263.94
2022-09-23T08:25:47.015Z,92264.25
2022-09-23T08:28:14.583Z,92260.56
2022-09-23T08:30:41.978Z,92261.63
2022-09-23T08:33:09.369Z,92271.97
2022-09-23T08:35:36.744Z,92264.41
2022-09-23T08:38:04.094Z,92265.16
2022-09-23T08:40:31.764Z,92268.97
2022-09-23T08:42:59.175Z,92259.44
2022-09-23T08:45:26.534Z,92267.78
2022-09-23T08:47:53.877Z,92263.56
2022-09-23T08:50:21.304Z,92266.06
2022-09-23T08:52:48.750Z,92264.59
2022-09-23T08:55:16.123Z,92263.56
2022-09-23T08:57:43.464Z,92266.31
2022-09-23T09:00:10.820Z,92263.59
2022-09-23T09:02:38.208Z,92268.16
2022-09-23T09:05:05.642Z,92262.81
2022-09-23T09:07:37.409Z,92261.16
2022-09-23T09:10:04.962Z,92263.47
2022-09-23T09:12:35.165Z,92258.53
2022-09-23T09:15:02.558Z,92255.75
2022-09-23T09:17:34.369Z,92261.78
2022-09-23T09:20:02.404Z,92258.22
2022-09-23T09:22:47.855Z,92256.50
2022-09-23T09:25:15.200Z,92255.06
2022-09-23T09:27:42.547Z,92244.84
2022-09-23T09:30:09.807Z,92245.44
2022-09-23T09:32:37.167Z,92235.19
2022-09-23T09:35:04.526Z,92236.66
2022-09-23T09:37:31.905Z,92244.72
2022-09-23T09:39:59.250Z,92241.28
2022-09-23T09:42:26.611Z,92229.03
2022-09-23T09:44:54.070Z,92230.50
2022-09-23T09:47:21.682Z,92226.34
2022-09-23T09:49:49.212Z,92227.91
2022-09-23T09:52:19.496Z,92228.34
2022-09-23T09:54:46.921Z,92225.34
2022-09-23T09:57:14.260Z,92237.53
2022-09-23T09:59:41.617Z,92230.16
2022-09-23T10:02:08.958Z,92225.66
2022-09-23T10:04:36.376Z,92230.31
2022-09-23T10:07:03.798Z,92235.69
2022-09-23T10:09:31.275Z,92229.06
2022-09-23T10:11:58.651Z,92232.59
2022-09-23T10:14:25.996Z,92222.91
2022-09-23T10:16:53.401Z,92224.06
2022-09-23T10:19:20.810Z,92219.41
2022-09-23T10:22:06.421Z,92222.00
2022-09-23T10:24:33.806Z,92226.97
2022-09-23T10:27:01.153Z,92216.59
2022-09-23T10:29:28.505Z,92214.69
2022-09-23T10:31:55.882Z,92216.22
2022-09-23T10:34:23.245Z,92210.88
2022-09-23T10:36:50.597Z,92210.88
2022-09-23T10:39:18.066Z,92212.53
2022-09-23T10:41:45.426Z,92207.50
2022-09-23T10:44:12.784Z,92207.59
2022-09-23T10:46:40.246Z,92199.38
2022-09-23T10:49:07.654Z,92196.88
2022-09-23T10:51:47.170Z,92197.63
2022-09-23T10:54:20.834Z,92194.88
2022-09-23T10:57:06.413Z,92193.03
2022-09-23T10:59:33.787Z,92197.56
2022-09-23T11:02:16.326Z,92197.44
2022-09-23T11:04:43.753Z,92205.06
2022-09-23T11:07:11.201Z,92187.84
2022-09-23T11:09:38.544Z,92192.47
2022-09-23T11:12:05.895Z,92201.03
2022-09-23T11:14:33.318Z,92186.91
2022-09-23T11:17:00.758Z,92191.03
2022-09-23T11:19:28.140Z,92190.22
2022-09-23T11:21:55.484Z,92185.19
2022-09-23T11:24:22.839Z,92190.72
2022-09-23T11:26:50.215Z,92184.31
2022-09-23T11:29:17.579Z,92191.56
2022-09-23T11:31:44.928Z,92182.97
2022-09-23T11:34:12.287Z,92180.56
2022-09-23T11:36:39.639Z,92178.19
2022-09-23T11:39:07.003Z,92171.56
2022-09-23T11:41:34.358Z,92171.44
2022-09-23T11:44:01.739Z,92155.41
2022-09-23T11:46:29.165Z,92159.72
2022-09-23T11:49:07.050Z,92157.53
2022-09-23T11:51:34.416Z,92153.69
2022-09-23T11:54:20.906Z,92156.56
2022-09-23T11:56:49.297Z,92150.63
2022-09-23T11:59:16.826Z,92149.97
2022-09-23T12:01:45.767Z,92144.38
2022-09-23T12:04:19.923Z,92135.59
2022-09-23T12:06:48.312Z,92137.25
2022-09-23T12:09:15.669Z,92131.16
2022-09-23T12:11:43.198Z,92136.88
2022-09-23T12:14:10.590Z,92141.13
2022-09-23T12:16:38.034Z,92136.75
2022-09-23T12:19:16.252Z,92130.97
2022-09-23T12:21:50.641Z,92129.06
2022-09-23T12:24:19.362Z,92129.97
2022-09-23T12:26:46.764Z,92123.81
2022-09-23T12:29:16.192Z,92126.59
2022-09-23T12:31:45.359Z,92130.19
2022-09-23T12:34:29.415Z,92121.94
2022-09-23T12:36:56.775Z,92117.13
2022-09-23T12:39:24.134Z,92120.09
2022-09-23T12:41:51.508Z,92118.22
2022-09-23T12:44:18.866Z,92115.09
2022-09-23T12:46:46.321Z,92112.06
2022-09-23T12:49:15.225Z,92115.09
2022-09-23T12:51:42.575Z,92112.50
2022-09-23T12:54:09.995Z,92107.38
2022-09-23T12:56:37.374Z,92105.78
2022-09-23T12:59:04.726Z,92110.59
2022-09-23T13:01:32.141Z,92112.22
2022-09-23T13:04:08.537Z,92104.75
2022-09-23T13:06:35.914Z,92099.97
2022-09-23T13:09:03.273Z,92100.72
2022-09-23T13:11:30.641Z,92090.44
2022-09-23T13:13:58.023Z,92087.09
2022-09-23T13:16:25.413Z,92084.31
2022-09-23T13:18:52.795Z,92089.94
2022-09-23T13:21:20.144Z,92083.03
2022-09-23T13:23:47.520Z,92081.53
2022-09-23T13:26:14.888Z,92079.56
2022-09-23T13:28:51.201Z,92078.03
2022-09-23T13:31:18.635Z,92078.84
2022-09-23T13:33:46.053Z,92083.63
2022-09-23T13:36:13.411Z,92085.16
2022-09-23T13:38:40.784Z,92078.38
2022-09-23T13:41:08.157Z,92084.41
2022-09-23T13:43:40.279Z,92084.88
2022-09-23T13:46:27.555Z,92074.28
2022-09-23T13:48:54.915Z,92077.88
2022-09-23T13:51:22.301Z,92072.16
2022-09-23T13:53:49.690Z,92074.56
2022-09-23T13:56:26.078Z,92071.88
2022-09-23T13:58:53.453Z,92068.31
2022-09-23T14:01:20.856Z,92064.19
2022-09-23T14:03:48.212Z,92066.28
2022-09-23T14:06:17.472Z,92059.97
2022-09-23T14:08:44.846Z,92056.47
2022-09-23T14:11:12.192Z,92057.38
2022-09-23T14:13:39.541Z,92055.31
2022-09-23T14:16:07.064Z,92057.38
2022-09-23T14:18:34.469Z,92059.81
2022-09-23T14:21:01.811Z,92059.31
2022-09-23T14:23:29.184Z,92063.13
2022-09-23T14:25:56.537Z,92057.53
2022-09-23T14:28:23.893Z,92043.78
2022-09-23T14:30:51.349Z,92049.72
2022-09-23T14:33:18.705Z,92049.66
2022-09-23T14:35:46.048Z,92043.16
2022-09-23T14:38:13.418Z,92040.69
2022-09-23T14:40:40.807Z,92041.75
2022-09-23T14:43:08.168Z,92034.38
2022-09-23T14:45:35.627Z,92046.00
2022-09-23T14:48:03.064Z,92028.53
2022-09-23T14:50:30.425Z,92033.28
2022-09-23T14:52:57.780Z,92031.25
2022-09-23T14:55:25.150Z,92026.13
2022-09-23T14:57:54.421Z,92022.19
2022-09-23T15:00:21.794Z,92019.75
2022-09-23T15:02:49.171Z,92018.38
2022-09-23T15:05:16.529Z,92019.22
2022-09-23T15:07:43.906Z,92020.75
2022-09-23T15:10:11.277Z,92019.59
2022-09-23T15:12:38.697Z,92016.84
2022-09-23T15:15:06.057Z,92020.34
2022-09-23T15:17:33.432Z,92017.81
2022-09-23T15:20:00.891Z,92009.19
2022-09-23T15:22:28.240Z,92015.09
2022-09-23T15:24:55.593Z,92012.19
2022-09-23T15:27:22.968Z,92017.47
2022-09-23T15:29:50.325Z,92012.66
2022-09-23T15:32:17.671Z,92011.91
2022-09-23T15:34:45.102Z,92012.56
2022-09-23T15:37:12.505Z,92007.72
2022-09-23T15:39:39.908Z,92003.50
2022-09-23T15:42:07.259Z,92015.28
2022-09-23T15:44:34.614Z,92011.31
2022-09-23T15:47:01.990Z,92012.94
2022-09-23T15:49:29.340Z,92008.16
2022-09-23T15:52:11.888Z,92011.47
2022-09-23T15:54:39.241Z,92010.00
2022-09-23T15:57:06.596Z,92014.53
2022-09-23T15:59:34.056Z,92010.84
2022-09-23T16:02:13.521Z,92015.22
2022-09-23T16:04:40.957Z,92008.78
2022-09-23T16:07:08.351Z,92013.63
2022-09-23T16:09:35.701Z,92008.22
2022-09-23T16:12:03.066Z,92008.00
2022-09-23T16:14:30.450Z,92013.13
2022-09-23T16:16:57.850Z,92012.97
2022-09-23T16:19:25.276Z,92010.56
2022-09-23T16:21:52.622Z,92010.34
2022-09-23T16:24:22.545Z,92006.13
2022-09-23T16:26:54.072Z,92007.75
2022-09-23T16:29:21.425Z,91999.28
2022-09-23T16:31:48.843Z,92004.53
2022-09-23T16:34:16.271Z,91997.63
2022-09-23T16:36:43.667Z,91999.63
2022-09-23T16:39:11.094Z,91987.22
2022-09-23T16:41:38.502Z,91996.06
2022-09-23T16:44:05.874Z,91991.44
2022-09-23T16:46:33.276Z,91988.75
2022-09-23T16:49:00.703Z,91990.38
2022-09-23T16:51:28.077Z,91991.97
2022-09-23T16:53:55.425Z,91995.78
2022-09-23T16:56:27.412Z,91989.09
2022-09-23T16:58:55.933Z,91999.03
2022-09-23T17:01:23.385Z,91994.88
2022-09-23T17:03:50.745Z,91996.00
2022-09-23T17:06:18.099Z,91998.53
2022-09-23T17:08:45.459Z,91995.16
2022-09-23T17:11:12.796Z,92000.56
2022-09-23T17:13:40.168Z,92005.41
2022-09-23T17:16:07.568Z,92004.38
2022-09-23T17:18:34.936Z,92008.91
2022-09-23T17:21:04.400Z,92004.25
2022-09-23T17:23:31.815Z,92007.22
2022-09-23T17:25:59.188Z,91999.22
2022-09-23T17:28:26.553Z,92008.41
2022-09-23T17:30:53.896Z,92000.78
2022-09-23T17:33:21.242Z,92002.06
2022-09-23T17:35:48.621Z,91996.38
2022-09-23T17:38:15.989Z,91996.91
2022-09-23T17:40:43.387Z,91998.22
2022-09-23T17:43:10.781Z,91994.69
2022-09-23T17:45:38.158Z,91990.53
2022-09-23T17:48:05.558Z,91989.91
2022-09-23T17:50:34.938Z,91981.59
2022-09-23T17:53:02.290Z,91982.53
2022-09-23T17:55:29.637Z,91987.50
2022-09-23T17:57:57.017Z,91975.41
2022-09-23T18:00:24.369Z,91976.59
2022-09-23T18:02:51.713Z,91971.47
2022-09-23T18:05:19.081Z,91971.25
2022-09-23T18:07:46.438Z,91968.25
2022-09-23T18:10:13.813Z,91960.72
2022-09-23T18:12:41.284Z,91954.31
2022-09-23T18:15:08.642Z,91947.41
2022-09-23T18:17:35.992Z,91947.06
2022-09-23T18:20:03.384Z,91942.44
2022-09-23T18:22:30.724Z,91942.94
2022-09-23T18:24:58.078Z,91950.81
2022-09-23T18:27:25.443Z,91957.84
2022-09-23T18:29:52.816Z,91960.16
2022-09-23T18:32:20.155Z,91949.25
2022-09-23T18:34:47.498Z,91958.97
2022-09-23T18:37:16.868Z,91953.59
2022-09-23T18:39:44.739Z,91959.19
2022-09-23T18:42:12.234Z,91960.69
2022-09-23T18:44:39.589Z,91966.34
2022-09-23T18:47:06.811Z,91975.00
2022-09-23T18:49:34.267Z,91974.44
2022-09-23T18:52:01.616Z,91975.34
2022-09-23T18:54:29.001Z,91974.16
2022-09-23T18:56:56.450Z,91968.19
2022-09-23T18:59:23.830Z,91962.13
2022-09-23T19:01:51.417Z,91965.41
2022-09-23T19:04:18.932Z,91970.72
2022-09-23T19:06:46.302Z,91969.56
2022-09-23T19:09:13.644Z,91962.81
2022-09-23T19:11:40.994Z,91966.63
2022-09-23T19:14:10.879Z,91965.47
2022-09-23T19:16:38.707Z,91965.88
2022-09-23T19:19:06.097Z,91970.25
2022-09-23T19:21:33.579Z,91976.50
2022-09-23T19:24:00.994Z,91979.56
2022-09-23T19:26:28.352Z,91986.16
2022-09-23T19:28:55.826Z,91982.19
2022-09-23T19:31:25.148Z,91984.00
2022-09-23T19:33:52.526Z,91983.19
2022-09-23T19:36:19.901Z,91983.44
2022-09-23T19:38:49.177Z,91982.81
2022-09-23T19:41:16.536Z,91981.44
2022-09-23T19:43:43.920Z,91975.50
2022-09-23T19:46:26.561Z,91981.31
2022-09-23T19:48:53.984Z,91978.44
2022-09-23T19:51:21.332Z,91973.56
2022-09-23T19:53:48.680Z,91972.66
2022-09-23T19:56:16.043Z,91978.16
2022-09-23T19:58:43.396Z,91974.94
2022-09-23T20:01:10.815Z,91978.03
2022-09-23T20:03:38.326Z,91967.47
2022-09-23T20:06:07.539Z,91970.50
2022-09-23T20:08:34.879Z,91964.72
2022-09-23T20:11:02.259Z,91971.34
2022-09-23T20:13:29.621Z,91977.03
2022-09-23T20:15:57.149Z,91962.06
2022-09-23T20:18:24.580Z,91966.59
2022-09-23T20:20:51.934Z,91963.88
2022-09-23T20:23:19.315Z,91963.13
2022-09-23T20:25:46.667Z,91958.34
2022-09-23T20:28:14.032Z,91952.41
2022-09-23T20:30:41.381Z,91950.13
2022-09-23T20:33:08.728Z,91952.16
2022-09-23T20:35:36.090Z,91952.41
2022-09-23T20:38:07.878Z,91953.34
2022-09-23T20:40:35.539Z,91956.00
2022-09-23T20:43:02.933Z,91961.53
2022-09-23T20:45:30.282Z,91952.63
2022-09-23T20:47:57.628Z,91952.66
2022-09-23T20:50:24.999Z,91962.03
2022-09-23T20:52:52.348Z,91958.69
2022-09-23T20:55:19.699Z,91953.09
2022-09-23T20:57:49.062Z,91967.34
2022-09-23T21:00:16.406Z,91968.34
2022-09-23T21:02:43.754Z,91960.59
2022-09-23T21:05:11.116Z,91959.31
2022-09-23T21:07:38.491Z,91956.81
2022-09-23T21:10:05.982Z,91953.84
2022-09-23T21:12:33.371Z,91966.84
2022-09-23T21:15:00.727Z,91966.03
2022-09-23T21:17:28.079Z,91959.78
2022-09-23T21:19:55.429Z,91959.28
2022-09-23T21:22:22.794Z,91960.38
2022-09-23T21:27:37.523Z,91951.75
2022-09-23T21:30:04.890Z,91959.59
2022-09-23T21:32:32.247Z,91958.13
2022-09-23T21:34:59.616Z,91949.72
2022-09-23T21:37:26.968Z,91956.72
2022-09-23T21:39:54.319Z,91958.44
2022-09-23T21:42:21.775Z,91959.13
2022-09-23T21:44:51.046Z,91960.50
2022-09-23T21:47:18.388Z,91960.44
2022-09-23T21:49:49.942Z,91962.03
2022-09-23T21:52:18.189Z,91959.09
2022-09-23T21:54:45.429Z,91953.84
2022-09-23T21:57:12.789Z,91957.28
2022-09-23T21:59:40.137Z,91945.31
2022-09-23T22:02:07.521Z,91960.75
2022-09-23T22:04:34.904Z,91958.75
2022-09-23T22:07:02.315Z,91962.84
2022-09-23T22:09:29.682Z,91963.41
2022-09-23T22:11:57.034Z,91959.03
2022-09-23T22:14:24.389Z,91961.41
2022-09-23T22:16:51.849Z,91962.22
2022-09-23T22:19:19.203Z,91957.97
2022-09-23T22:21:46.556Z,91949.66
2022-09-23T22:24:13.939Z,91952.72
2022-09-23T22:26:41.297Z,91949.28
2022-09-23T22:29:08.646Z,91955.28
2022-09-23T22:31:36.065Z,91944.81
2022-09-23T22:34:03.513Z,91957.50
2022-09-23T22:36:30.973Z,91956.91
2022-09-23T22:38:59.331Z,91953.28
2022-09-23T22:41:26.843Z,91943.22
2022-09-23T22:43:54.200Z,91942.50
2022-09-23T22:46:21.641Z,91949.63
2022-09-23T22:48:49.043Z,91952.72
2022-09-23T22:51:16.398Z,91951.81
2022-09-23T22:53:43.769Z,91945.38
2022-09-23T22:56:11.134Z,91949.81
2022-09-23T22:58:38.497Z,91951.56
2022-09-23T23:01:05.872Z,91943.56
2022-09-23T23:03:33.244Z,91944.34
2022-09-23T23:06:00.637Z,91945.00
2022-09-23T23:08:28.014Z,91944.16
2022-09-23T23:10:57.280Z,91944.97
2022-09-23T23:13:24.623Z,91945.13
2022-09-23T23:15:52.036Z,91935.81
2022-09-23T23:18:19.402Z,91933.72
2022-09-23T23:20:46.763Z,91937.22
2022-09-23T23:23:14.142Z,91930.41
2022-09-23T23:25:50.592Z,91931.09
2022-09-23T23:28:17.962Z,91924.28
2022-09-23T23:30:45.332Z,91925.31
2022-09-23T23:33:12.678Z,91927.63
2022-09-23T23:35:40.030Z,91919.16
2022-09-23T23:38:07.403Z,91915.97
2022-09-23T23:40:34.819Z,91912.13
2022-09-23T23:43:02.216Z,91910.94
2022-09-23T23:45:29.587Z,91909.56
2022-09-23T23:47:56.808Z,91909.00
2022-09-23T23:50:24.175Z,91908.03
2022-09-23T23:52:51.536Z,91897.63
2022-09-23T23:55:18.899Z,91899.59
2022-09-23T23:57:46.253Z,91903.59
